sensor_id;sensor_type;location;lat;lon;timestamp;pressure;altitude;pressure_sealevel;temperature;humidity
40954;BME280;26686;50.130;8.710;2023-04-06T00:03:06;100448.81;;;6.59;42.74
40954;BME280;26686;50.130;8.710;2023-04-06T00:08:07;100437.66;;;6.54;42.88
40954;BME280;26686;50.130;8.710;2023-04-06T00:13:09;100439.38;;;6.55;42.50
40954;BME280;26686;50.130;8.710;2023-04-06T00:18:11;100455.41;;;6.52;42.31
40954;BME280;26686;50.130;8.710;2023-04-06T00:23:13;100450.50;;;6.46;42.18
40954;BME280;26686;50.130;8.710;2023-04-06T00:28:14;100435.94;;;6.39;42.65
40954;BME280;26686;50.130;8.710;2023-04-06T00:33:16;100437.84;;;6.51;42.31
40954;BME280;26686;50.130;8.710;2023-04-06T00:38:17;100430.09;;;6.48;42.43
40954;BME280;26686;50.130;8.710;2023-04-06T00:43:19;100424.63;;;6.36;42.22
40954;BME280;26686;50.130;8.710;2023-04-06T00:48:20;100425.31;;;6.24;42.55
40954;BME280;26686;50.130;8.710;2023-04-06T00:53:22;100428.16;;;6.21;42.60
40954;BME280;26686;50.130;8.710;2023-04-06T00:58:23;100416.50;;;6.09;43.06
40954;BME280;26686;50.130;8.710;2023-04-06T01:03:25;100403.75;;;6.01;43.19
40954;BME280;26686;50.130;8.710;2023-04-06T01:08:27;100408.38;;;5.98;43.79
40954;BME280;26686;50.130;8.710;2023-04-06T01:13:28;100405.81;;;5.96;44.44
40954;BME280;26686;50.130;8.710;2023-04-06T01:18:30;100404.38;;;5.91;44.43
40954;BME280;26686;50.130;8.710;2023-04-06T01:23:32;100404.47;;;5.89;44.72
40954;BME280;26686;50.130;8.710;2023-04-06T01:28:33;100402.44;;;5.78;45.20
40954;BME280;26686;50.130;8.710;2023-04-06T01:33:34;100401.75;;;5.75;45.51
40954;BME280;26686;50.130;8.710;2023-04-06T01:38:36;100390.03;;;5.64;45.81
40954;BME280;26686;50.130;8.710;2023-04-06T01:43:38;100380.59;;;5.60;45.54
40954;BME280;26686;50.130;8.710;2023-04-06T01:48:39;100387.25;;;5.52;46.13
40954;BME280;26686;50.130;8.710;2023-04-06T01:53:41;100376.09;;;5.46;45.91
40954;BME280;26686;50.130;8.710;2023-04-06T01:58:42;100390.72;;;5.52;45.92
40954;BME280;26686;50.130;8.710;2023-04-06T02:03:44;100392.19;;;5.42;45.93
40954;BME280;26686;50.130;8.710;2023-04-06T02:08:45;100389.06;;;5.35;46.23
40954;BME280;26686;50.130;8.710;2023-04-06T02:13:47;100382.94;;;5.35;46.51
40954;BME280;26686;50.130;8.710;2023-04-06T02:18:49;100377.91;;;5.30;46.76
40954;BME280;26686;50.130;8.710;2023-04-06T02:23:52;100374.66;;;5.25;47.49
40954;BME280;26686;50.130;8.710;2023-04-06T02:28:54;100381.22;;;5.34;47.48
40954;BME280;26686;50.130;8.710;2023-04-06T02:33:55;100376.22;;;5.13;48.09
40954;BME280;26686;50.130;8.710;2023-04-06T02:38:56;100380.56;;;5.14;48.47
40954;BME280;26686;50.130;8.710;2023-04-06T02:43:58;100374.09;;;5.04;48.73
40954;BME280;26686;50.130;8.710;2023-04-06T02:48:59;100377.47;;;5.06;48.77
40954;BME280;26686;50.130;8.710;2023-04-06T02:54:01;100380.28;;;5.03;49.12
40954;BME280;26686;50.130;8.710;2023-04-06T02:59:03;100380.53;;;4.98;49.62
40954;BME280;26686;50.130;8.710;2023-04-06T03:04:04;100369.41;;;4.93;49.75
40954;BME280;26686;50.130;8.710;2023-04-06T03:09:06;100367.19;;;4.85;50.28
40954;BME280;26686;50.130;8.710;2023-04-06T03:14:08;100374.16;;;4.86;50.08
40954;BME280;26686;50.130;8.710;2023-04-06T03:19:09;100370.34;;;4.76;50.49
40954;BME280;26686;50.130;8.710;2023-04-06T03:24:11;100361.91;;;4.69;50.56
40954;BME280;26686;50.130;8.710;2023-04-06T03:29:14;100375.78;;;4.73;50.92
40954;BME280;26686;50.130;8.710;2023-04-06T03:34:19;100380.19;;;4.72;50.74
40954;BME280;26686;50.130;8.710;2023-04-06T03:39:21;100378.63;;;4.68;51.08
40954;BME280;26686;50.130;8.710;2023-04-06T03:44:22;100369.00;;;4.51;51.33
40954;BME280;26686;50.130;8.710;2023-04-06T03:49:24;100378.47;;;4.55;51.39
40954;BME280;26686;50.130;8.710;2023-04-06T03:54:25;100386.38;;;4.55;51.43
40954;BME280;26686;50.130;8.710;2023-04-06T03:59:27;100378.78;;;4.49;51.54
40954;BME280;26686;50.130;8.710;2023-04-06T04:04:29;100390.50;;;4.43;51.78
40954;BME280;26686;50.130;8.710;2023-04-06T04:09:30;100379.44;;;4.37;52.01
40954;BME280;26686;50.130;8.710;2023-04-06T04:14:32;100386.56;;;4.35;51.96
40954;BME280;26686;50.130;8.710;2023-04-06T04:19:33;100396.88;;;4.39;51.96
40954;BME280;26686;50.130;8.710;2023-04-06T04:24:35;100400.00;;;4.30;52.31
40954;BME280;26686;50.130;8.710;2023-04-06T04:29:36;100401.88;;;4.28;52.96
40954;BME280;26686;50.130;8.710;2023-04-06T04:34:37;100411.53;;;4.28;52.66
40954;BME280;26686;50.130;8.710;2023-04-06T04:39:41;100407.28;;;4.25;52.98
40954;BME280;26686;50.130;8.710;2023-04-06T04:44:42;100405.66;;;4.22;53.38
40954;BME280;26686;50.130;8.710;2023-04-06T04:49:44;100410.00;;;4.23;53.39
40954;BME280;26686;50.130;8.710;2023-04-06T04:54:45;100407.47;;;4.22;53.15
40954;BME280;26686;50.130;8.710;2023-04-06T04:59:48;100404.91;;;4.20;53.20
40954;BME280;26686;50.130;8.710;2023-04-06T05:04:51;100399.91;;;4.14;53.60
40954;BME280;26686;50.130;8.710;2023-04-06T05:09:52;100403.50;;;4.13;53.81
40954;BME280;26686;50.130;8.710;2023-04-06T05:14:54;100414.72;;;4.17;54.03
40954;BME280;26686;50.130;8.710;2023-04-06T05:19:55;100401.56;;;4.17;53.75
40954;BME280;26686;50.130;8.710;2023-04-06T05:24:57;100425.03;;;4.21;54.27
40954;BME280;26686;50.130;8.710;2023-04-06T05:29:59;100414.41;;;4.23;54.05
40954;BME280;26686;50.130;8.710;2023-04-06T05:35:01;100405.03;;;4.17;54.42
40954;BME280;26686;50.130;8.710;2023-04-06T05:40:03;100421.47;;;4.22;54.57
40954;BME280;26686;50.130;8.710;2023-04-06T05:45:06;100426.56;;;4.08;54.35
40954;BME280;26686;50.130;8.710;2023-04-06T05:50:08;100414.72;;;3.99;54.81
40954;BME280;26686;50.130;8.710;2023-04-06T05:55:09;100432.47;;;4.13;54.71
40954;BME280;26686;50.130;8.710;2023-04-06T06:00:12;100440.34;;;4.31;54.28
40954;BME280;26686;50.130;8.710;2023-04-06T06:05:13;100438.53;;;4.33;54.18
40954;BME280;26686;50.130;8.710;2023-04-06T06:10:15;100440.84;;;4.39;54.05
40954;BME280;26686;50.130;8.710;2023-04-06T06:15:17;100441.44;;;4.44;54.35
40954;BME280;26686;50.130;8.710;2023-04-06T06:20:18;100433.66;;;4.58;54.13
40954;BME280;26686;50.130;8.710;2023-04-06T06:25:20;100431.91;;;4.75;53.61
40954;BME280;26686;50.130;8.710;2023-04-06T06:30:22;100444.03;;;4.95;53.62
40954;BME280;26686;50.130;8.710;2023-04-06T06:35:24;100444.31;;;5.06;52.89
40954;BME280;26686;50.130;8.710;2023-04-06T06:40:26;100442.44;;;5.24;52.61
40954;BME280;26686;50.130;8.710;2023-04-06T06:45:28;100451.13;;;5.42;52.44
40954;BME280;26686;50.130;8.710;2023-04-06T06:50:30;100445.56;;;5.63;51.95
40954;BME280;26686;50.130;8.710;2023-04-06T06:55:32;100443.19;;;5.74;51.31
40954;BME280;26686;50.130;8.710;2023-04-06T07:00:34;100442.78;;;5.96;50.79
40954;BME280;26686;50.130;8.710;2023-04-06T07:05:35;100446.28;;;6.13;50.24
40954;BME280;26686;50.130;8.710;2023-04-06T07:10:39;100439.13;;;6.29;49.51
40954;BME280;26686;50.130;8.710;2023-04-06T07:15:41;100419.16;;;6.40;49.08
40954;BME280;26686;50.130;8.710;2023-04-06T07:20:43;100436.91;;;6.66;48.67
40954;BME280;26686;50.130;8.710;2023-04-06T07:25:45;100436.72;;;6.84;47.45
40954;BME280;26686;50.130;8.710;2023-04-06T07:30:46;100439.28;;;7.00;47.00
40954;BME280;26686;50.130;8.710;2023-04-06T07:35:48;100438.84;;;7.20;46.83
40954;BME280;26686;50.130;8.710;2023-04-06T07:40:50;100443.63;;;7.42;45.97
40954;BME280;26686;50.130;8.710;2023-04-06T07:45:51;100441.44;;;7.49;43.92
40954;BME280;26686;50.130;8.710;2023-04-06T07:51:00;100439.59;;;7.64;43.86
40954;BME280;26686;50.130;8.710;2023-04-06T07:56:04;100441.34;;;7.78;43.41
40954;BME280;26686;50.130;8.710;2023-04-06T08:01:06;100432.38;;;7.93;43.17
40954;BME280;26686;50.130;8.710;2023-04-06T08:06:07;100430.81;;;8.04;42.75
40954;BME280;26686;50.130;8.710;2023-04-06T08:11:09;100428.28;;;8.28;42.63
40954;BME280;26686;50.130;8.710;2023-04-06T08:16:10;100430.03;;;8.55;41.67
40954;BME280;26686;50.130;8.710;2023-04-06T08:21:12;100428.34;;;8.54;41.97
40954;BME280;26686;50.130;8.710;2023-04-06T08:26:13;100433.34;;;8.71;41.34
40954;BME280;26686;50.130;8.710;2023-04-06T08:31:15;100425.78;;;8.91;41.15
40954;BME280;26686;50.130;8.710;2023-04-06T08:36:17;100433.19;;;9.11;40.04
40954;BME280;26686;50.130;8.710;2023-04-06T08:41:21;100431.41;;;9.36;40.11
40954;BME280;26686;50.130;8.710;2023-04-06T08:46:23;100433.59;;;9.66;38.72
40954;BME280;26686;50.130;8.710;2023-04-06T08:51:30;100429.78;;;9.70;38.97
40954;BME280;26686;50.130;8.710;2023-04-06T08:56:32;100424.47;;;10.06;38.10
40954;BME280;26686;50.130;8.710;2023-04-06T09:01:39;100404.09;;;10.29;37.62
40954;BME280;26686;50.130;8.710;2023-04-06T09:06:42;100410.78;;;10.46;37.79
40954;BME280;26686;50.130;8.710;2023-04-06T09:11:48;100412.78;;;10.78;37.23
40954;BME280;26686;50.130;8.710;2023-04-06T09:16:50;100413.19;;;11.28;36.12
40954;BME280;26686;50.130;8.710;2023-04-06T09:22:02;100407.41;;;11.67;35.64
40954;BME280;26686;50.130;8.710;2023-04-06T09:27:03;100406.13;;;12.15;34.33
40954;BME280;26686;50.130;8.710;2023-04-06T09:32:06;100387.09;;;12.29;34.27
40954;BME280;26686;50.130;8.710;2023-04-06T09:37:18;100394.41;;;12.89;34.17
40954;BME280;26686;50.130;8.710;2023-04-06T09:42:24;100393.38;;;13.21;31.89
40954;BME280;26686;50.130;8.710;2023-04-06T09:47:27;100385.22;;;13.22;32.79
40954;BME280;26686;50.130;8.710;2023-04-06T09:52:37;100386.16;;;13.42;32.85
40954;BME280;26686;50.130;8.710;2023-04-06T09:57:49;100390.66;;;13.61;32.66
40954;BME280;26686;50.130;8.710;2023-04-06T10:08:15;100381.84;;;14.47;31.03
40954;BME280;26686;50.130;8.710;2023-04-06T10:13:18;100376.41;;;15.05;29.89
40954;BME280;26686;50.130;8.710;2023-04-06T10:18:20;100352.88;;;16.24;29.52
40954;BME280;26686;50.130;8.710;2023-04-06T10:28:41;100366.78;;;20.42;23.02
40954;BME280;26686;50.130;8.710;2023-04-06T10:33:59;100357.41;;;20.68;22.58
40954;BME280;26686;50.130;8.710;2023-04-06T10:39:04;100355.66;;;19.37;23.93
40954;BME280;26686;50.130;8.710;2023-04-06T10:44:05;100359.16;;;19.15;23.79
40954;BME280;26686;50.130;8.710;2023-04-06T10:49:11;100346.63;;;20.59;22.01
40954;BME280;26686;50.130;8.710;2023-04-06T10:54:16;100335.66;;;25.04;19.18
40954;BME280;26686;50.130;8.710;2023-04-06T10:59:19;100338.66;;;26.79;16.27
40954;BME280;26686;50.130;8.710;2023-04-06T11:04:22;100331.47;;;26.67;16.42
40954;BME280;26686;50.130;8.710;2023-04-06T11:09:25;100319.66;;;27.64;15.53
40954;BME280;26686;50.130;8.710;2023-04-06T11:14:27;100323.78;;;26.57;15.09
40954;BME280;26686;50.130;8.710;2023-04-06T11:19:28;100316.56;;;27.72;15.48
40954;BME280;26686;50.130;8.710;2023-04-06T11:24:31;100320.47;;;29.12;14.76
40954;BME280;26686;50.130;8.710;2023-04-06T11:29:32;100302.13;;;30.92;14.05
40954;BME280;26686;50.130;8.710;2023-04-06T11:34:38;100295.84;;;31.19;12.81
40954;BME280;26686;50.130;8.710;2023-04-06T11:39:47;100286.97;;;31.12;12.53
40954;BME280;26686;50.130;8.710;2023-04-06T11:44:53;100282.06;;;27.17;15.27
40954;BME280;26686;50.130;8.710;2023-04-06T11:49:55;100282.97;;;26.43;16.19
40954;BME280;26686;50.130;8.710;2023-04-06T11:55:09;100279.41;;;25.81;15.99
40954;BME280;26686;50.130;8.710;2023-04-06T12:00:11;100271.09;;;25.12;16.81
40954;BME280;26686;50.130;8.710;2023-04-06T12:05:14;100265.22;;;23.84;17.15
40954;BME280;26686;50.130;8.710;2023-04-06T12:10:15;100270.19;;;23.20;17.52
40954;BME280;26686;50.130;8.710;2023-04-06T12:15:17;100268.50;;;21.59;19.17
40954;BME280;26686;50.130;8.710;2023-04-06T12:20:18;100268.03;;;21.56;19.72
40954;BME280;26686;50.130;8.710;2023-04-06T12:25:27;100262.63;;;20.46;20.54
40954;BME280;26686;50.130;8.710;2023-04-06T12:30:29;100260.09;;;21.32;19.63
40954;BME280;26686;50.130;8.710;2023-04-06T12:35:34;100252.91;;;23.35;17.36
40954;BME280;26686;50.130;8.710;2023-04-06T12:40:37;100247.84;;;22.50;17.80
40954;BME280;26686;50.130;8.710;2023-04-06T12:45:39;100248.03;;;22.13;17.92
40954;BME280;26686;50.130;8.710;2023-04-06T12:50:41;100243.13;;;22.30;17.98
40954;BME280;26686;50.130;8.710;2023-04-06T12:55:43;100237.66;;;22.65;18.13
40954;BME280;26686;50.130;8.710;2023-04-06T13:00:44;100229.00;;;21.22;19.39
40954;BME280;26686;50.130;8.710;2023-04-06T13:05:47;100232.66;;;20.26;20.52
40954;BME280;26686;50.130;8.710;2023-04-06T13:10:50;100228.94;;;20.12;20.50
40954;BME280;26686;50.130;8.710;2023-04-06T13:15:53;100220.72;;;20.05;20.90
40954;BME280;26686;50.130;8.710;2023-04-06T13:20:55;100222.91;;;19.72;19.73
40954;BME280;26686;50.130;8.710;2023-04-06T13:26:05;100232.94;;;19.25;20.30
40954;BME280;26686;50.130;8.710;2023-04-06T13:31:06;100219.22;;;18.80;21.13
40954;BME280;26686;50.130;8.710;2023-04-06T13:36:08;100210.00;;;18.75;21.31
40954;BME280;26686;50.130;8.710;2023-04-06T13:41:10;100216.59;;;18.72;21.63
40954;BME280;26686;50.130;8.710;2023-04-06T13:46:12;100204.44;;;18.45;21.79
40954;BME280;26686;50.130;8.710;2023-04-06T13:51:14;100208.09;;;18.52;21.73
40954;BME280;26686;50.130;8.710;2023-04-06T13:56:16;100205.66;;;18.65;22.18
40954;BME280;26686;50.130;8.710;2023-04-06T14:01:18;100197.72;;;18.72;22.17
40954;BME280;26686;50.130;8.710;2023-04-06T14:06:19;100196.41;;;18.36;22.76
40954;BME280;26686;50.130;8.710;2023-04-06T14:11:32;100191.16;;;17.87;22.79
40954;BME280;26686;50.130;8.710;2023-04-06T14:16:33;100194.53;;;17.97;23.24
40954;BME280;26686;50.130;8.710;2023-04-06T14:21:35;100193.44;;;17.42;23.66
40954;BME280;26686;50.130;8.710;2023-04-06T14:26:36;100201.34;;;17.44;23.95
40954;BME280;26686;50.130;8.710;2023-04-06T14:31:38;100183.84;;;17.07;24.10
40954;BME280;26686;50.130;8.710;2023-04-06T14:36:40;100196.25;;;16.83;24.75
40954;BME280;26686;50.130;8.710;2023-04-06T14:41:41;100196.50;;;16.55;24.60
40954;BME280;26686;50.130;8.710;2023-04-06T14:46:43;100190.09;;;16.48;24.91
40954;BME280;26686;50.130;8.710;2023-04-06T14:51:44;100185.59;;;16.49;25.09
40954;BME280;26686;50.130;8.710;2023-04-06T14:56:46;100182.00;;;16.32;25.30
40954;BME280;26686;50.130;8.710;2023-04-06T15:01:47;100178.63;;;16.21;25.47
40954;BME280;26686;50.130;8.710;2023-04-06T15:06:49;100182.66;;;15.91;25.75
40954;BME280;26686;50.130;8.710;2023-04-06T15:11:50;100176.13;;;15.85;25.88
40954;BME280;26686;50.130;8.710;2023-04-06T15:16:52;100178.88;;;15.76;25.83
40954;BME280;26686;50.130;8.710;2023-04-06T15:21:53;100169.72;;;15.60;26.06
40954;BME280;26686;50.130;8.710;2023-04-06T15:26:54;100178.47;;;15.36;26.33
40954;BME280;26686;50.130;8.710;2023-04-06T15:31:57;100161.94;;;15.23;26.54
40954;BME280;26686;50.130;8.710;2023-04-06T15:37:01;100176.63;;;15.18;26.24
40954;BME280;26686;50.130;8.710;2023-04-06T15:42:03;100167.28;;;15.23;26.38
40954;BME280;26686;50.130;8.710;2023-04-06T15:47:04;100159.88;;;15.16;26.62
40954;BME280;26686;50.130;8.710;2023-04-06T15:52:06;100163.56;;;14.97;26.37
40954;BME280;26686;50.130;8.710;2023-04-06T15:57:07;100160.28;;;14.85;26.81
40954;BME280;26686;50.130;8.710;2023-04-06T16:02:09;100166.25;;;14.79;26.85
40954;BME280;26686;50.130;8.710;2023-04-06T16:07:11;100178.50;;;14.82;27.23
40954;BME280;26686;50.130;8.710;2023-04-06T16:12:12;100166.78;;;14.65;27.54
40954;BME280;26686;50.130;8.710;2023-04-06T16:17:13;100167.94;;;14.62;27.08
40954;BME280;26686;50.130;8.710;2023-04-06T16:22:16;100166.00;;;14.55;27.24
40954;BME280;26686;50.130;8.710;2023-04-06T16:27:17;100140.25;;;13.98;27.84
40954;BME280;26686;50.130;8.710;2023-04-06T16:32:18;100186.13;;;14.03;28.57
40954;BME280;26686;50.130;8.710;2023-04-06T16:37:20;100189.53;;;13.95;29.21
40954;BME280;26686;50.130;8.710;2023-04-06T16:42:22;100191.53;;;13.84;29.67
40954;BME280;26686;50.130;8.710;2023-04-06T16:47:23;100186.09;;;13.75;29.83
40954;BME280;26686;50.130;8.710;2023-04-06T16:52:25;100185.00;;;13.68;30.00
40954;BME280;26686;50.130;8.710;2023-04-06T16:57:26;100185.13;;;13.67;29.56
40954;BME280;26686;50.130;8.710;2023-04-06T17:02:30;100167.16;;;13.59;29.84
40954;BME280;26686;50.130;8.710;2023-04-06T17:07:32;100174.88;;;13.62;30.32
40954;BME280;26686;50.130;8.710;2023-04-06T17:12:35;100184.03;;;13.59;29.92
40954;BME280;26686;50.130;8.710;2023-04-06T17:17:37;100170.41;;;13.53;30.52
40954;BME280;26686;50.130;8.710;2023-04-06T17:22:39;100173.22;;;13.41;31.03
40954;BME280;26686;50.130;8.710;2023-04-06T17:27:41;100173.09;;;13.43;31.53
40954;BME280;26686;50.130;8.710;2023-04-06T17:32:43;100178.03;;;13.38;31.50
40954;BME280;26686;50.130;8.710;2023-04-06T17:37:45;100190.53;;;13.18;32.16
40954;BME280;26686;50.130;8.710;2023-04-06T17:42:48;100201.22;;;12.98;32.42
40954;BME280;26686;50.130;8.710;2023-04-06T17:47:49;100196.88;;;12.97;33.13
40954;BME280;26686;50.130;8.710;2023-04-06T17:52:51;100204.19;;;12.95;33.06
40954;BME280;26686;50.130;8.710;2023-04-06T17:57:53;100210.66;;;12.93;33.31
40954;BME280;26686;50.130;8.710;2023-04-06T18:02:54;100219.22;;;12.77;34.59
40954;BME280;26686;50.130;8.710;2023-04-06T18:07:58;100235.78;;;12.70;34.97
40954;BME280;26686;50.130;8.710;2023-04-06T18:12:59;100235.34;;;12.65;35.34
40954;BME280;26686;50.130;8.710;2023-04-06T18:18:01;100238.44;;;12.61;36.00
40954;BME280;26686;50.130;8.710;2023-04-06T18:23:03;100243.44;;;12.44;36.96
40954;BME280;26686;50.130;8.710;2023-04-06T18:28:05;100248.66;;;12.46;37.19
40954;BME280;26686;50.130;8.710;2023-04-06T18:33:07;100245.00;;;12.47;37.94
40954;BME280;26686;50.130;8.710;2023-04-06T18:38:08;100265.53;;;12.46;38.62
40954;BME280;26686;50.130;8.710;2023-04-06T18:43:09;100257.84;;;12.22;40.40
40954;BME280;26686;50.130;8.710;2023-04-06T18:48:11;100260.94;;;12.17;41.36
40954;BME280;26686;50.130;8.710;2023-04-06T18:53:13;100264.31;;;12.19;42.02
40954;BME280;26686;50.130;8.710;2023-04-06T18:58:15;100274.03;;;11.99;43.63
40954;BME280;26686;50.130;8.710;2023-04-06T19:03:16;100284.78;;;11.77;46.11
40954;BME280;26686;50.130;8.710;2023-04-06T19:08:21;100286.19;;;11.71;46.77
40954;BME280;26686;50.130;8.710;2023-04-06T19:13:23;100298.22;;;11.65;48.74
40954;BME280;26686;50.130;8.710;2023-04-06T19:18:26;100304.38;;;11.66;50.13
40954;BME280;26686;50.130;8.710;2023-04-06T19:23:27;100299.19;;;11.64;50.71
40954;BME280;26686;50.130;8.710;2023-04-06T19:28:28;100298.00;;;11.57;51.77
40954;BME280;26686;50.130;8.710;2023-04-06T19:33:30;100297.81;;;11.49;52.68
40954;BME280;26686;50.130;8.710;2023-04-06T19:38:32;100306.72;;;11.59;54.38
40954;BME280;26686;50.130;8.710;2023-04-06T19:43:34;100300.09;;;11.54;55.11
40954;BME280;26686;50.130;8.710;2023-04-06T19:48:35;100304.50;;;11.43;56.67
40954;BME280;26686;50.130;8.710;2023-04-06T19:53:37;100299.53;;;11.39;57.89
40954;BME280;26686;50.130;8.710;2023-04-06T19:58:39;100305.16;;;11.24;58.39
40954;BME280;26686;50.130;8.710;2023-04-06T20:03:40;100303.63;;;11.10;60.84
40954;BME280;26686;50.130;8.710;2023-04-06T20:08:43;100305.84;;;11.05;61.52
40954;BME280;26686;50.130;8.710;2023-04-06T20:13:45;100312.84;;;11.06;62.90
40954;BME280;26686;50.130;8.710;2023-04-06T20:18:47;100312.50;;;11.00;63.00
40954;BME280;26686;50.130;8.710;2023-04-06T20:23:48;100307.94;;;10.90;63.76
40954;BME280;26686;50.130;8.710;2023-04-06T20:28:49;100311.72;;;10.76;64.15
40954;BME280;26686;50.130;8.710;2023-04-06T20:33:51;100307.22;;;10.77;65.20
40954;BME280;26686;50.130;8.710;2023-04-06T20:38:52;100306.41;;;10.65;66.51
40954;BME280;26686;50.130;8.710;2023-04-06T20:43:55;100301.44;;;10.49;66.69
40954;BME280;26686;50.130;8.710;2023-04-06T20:48:56;100305.81;;;10.50;67.99
40954;BME280;26686;50.130;8.710;2023-04-06T20:53:57;100304.84;;;10.40;67.88
40954;BME280;26686;50.130;8.710;2023-04-06T20:59:01;100305.81;;;10.39;67.98
40954;BME280;26686;50.130;8.710;2023-04-06T21:04:05;100303.59;;;10.33;68.81
40954;BME280;26686;50.130;8.710;2023-04-06T21:09:06;100312.81;;;10.29;69.97
40954;BME280;26686;50.130;8.710;2023-04-06T21:14:08;100301.78;;;10.22;70.71
40954;BME280;26686;50.130;8.710;2023-04-06T21:19:09;100287.13;;;10.16;69.94
40954;BME280;26686;50.130;8.710;2023-04-06T21:24:11;100279.06;;;10.18;70.61
40954;BME280;26686;50.130;8.710;2023-04-06T21:29:12;100284.00;;;10.11;71.42
40954;BME280;26686;50.130;8.710;2023-04-06T21:34:13;100282.53;;;9.96;71.77
40954;BME280;26686;50.130;8.710;2023-04-06T21:39:15;100275.03;;;9.89;71.48
40954;BME280;26686;50.130;8.710;2023-04-06T21:44:17;100274.66;;;9.83;71.93
40954;BME280;26686;50.130;8.710;2023-04-06T21:49:19;100273.47;;;9.87;72.50
40954;BME280;26686;50.130;8.710;2023-04-06T21:54:20;100268.59;;;9.69;73.10
40954;BME280;26686;50.130;8.710;2023-04-06T21:59:21;100266.03;;;9.68;73.24
40954;BME280;26686;50.130;8.710;2023-04-06T22:04:23;100252.28;;;9.63;73.39
40954;BME280;26686;50.130;8.710;2023-04-06T22:09:26;100264.13;;;9.70;74.32
40954;BME280;26686;50.130;8.710;2023-04-06T22:14:27;100253.50;;;9.70;73.96
40954;BME280;26686;50.130;8.710;2023-04-06T22:19:31;100245.53;;;9.70;73.71
40954;BME280;26686;50.130;8.710;2023-04-06T22:24:33;100242.88;;;9.70;74.02
40954;BME280;26686;50.130;8.710;2023-04-06T22:29:34;100233.44;;;9.66;74.00
40954;BME280;26686;50.130;8.710;2023-04-06T22:34:35;100248.88;;;9.61;74.08
40954;BME280;26686;50.130;8.710;2023-04-06T22:39:37;100235.56;;;9.49;75.10
40954;BME280;26686;50.130;8.710;2023-04-06T22:44:39;100231.25;;;9.60;75.28
40954;BME280;26686;50.130;8.710;2023-04-06T22:49:40;100227.59;;;9.61;74.85
40954;BME280;26686;50.130;8.710;2023-04-06T22:54:42;100220.34;;;9.51;76.18
40954;BME280;26686;50.130;8.710;2023-04-06T22:59:43;100208.03;;;9.50;75.62
40954;BME280;26686;50.130;8.710;2023-04-06T23:04:45;100209.84;;;9.50;75.45
40954;BME280;26686;50.130;8.710;2023-04-06T23:09:46;100205.38;;;9.50;75.16
40954;BME280;26686;50.130;8.710;2023-04-06T23:14:48;100202.97;;;9.47;76.73
40954;BME280;26686;50.130;8.710;2023-04-06T23:19:49;100200.50;;;9.44;77.53
40954;BME280;26686;50.130;8.710;2023-04-06T23:24:51;100199.56;;;9.45;76.90
40954;BME280;26686;50.130;8.710;2023-04-06T23:29:52;100193.06;;;9.49;77.49
40954;BME280;26686;50.130;8.710;2023-04-06T23:34:54;100192.94;;;9.51;76.96
40954;BME280;26686;50.130;8.710;2023-04-06T23:39:56;100187.50;;;9.52;76.71
40954;BME280;26686;50.130;8.710;2023-04-06T23:44:58;100183.88;;;9.53;77.22
40954;BME280;26686;50.130;8.710;2023-04-06T23:49:59;100172.88;;;9.47;77.24
40954;BME280;26686;50.130;8.710;2023-04-06T23:55:00;100172.03;;;9.46;78.18
